createdAt,value
2022-11-20T00:01:32.001Z,5.00
2022-11-20T00:04:00.781Z,5.00
2022-11-20T00:06:30.255Z,5.00
2022-11-20T00:09:02.639Z,5.10
2022-11-20T00:11:32.901Z,5.00
2022-11-20T00:14:03.157Z,5.00
2022-11-20T00:16:34.235Z,5.00
2022-11-20T00:19:02.413Z,5.00
2022-11-20T00:21:31.000Z,5.00
2022-11-20T00:24:01.502Z,5.00
2022-11-20T00:26:31.239Z,5.00
2022-11-20T00:29:01.163Z,5.00
2022-11-20T00:31:30.333Z,5.00
2022-11-20T00:33:58.588Z,5.00
2022-11-20T00:36:28.976Z,5.00
2022-11-20T00:38:58.669Z,5.00
2022-11-20T00:41:29.548Z,5.10
2022-11-20T00:43:58.152Z,5.10
2022-11-20T00:46:28.268Z,5.10
2022-11-20T00:48:56.995Z,5.10
2022-11-20T00:51:27.867Z,5.10
2022-11-20T00:53:57.935Z,5.10
2022-11-20T00:56:27.811Z,5.10
2022-11-20T00:58:56.079Z,5.10
2022-11-20T01:01:26.271Z,5.20
2022-11-20T01:03:56.510Z,5.20
2022-11-20T01:06:26.378Z,5.20
2022-11-20T01:08:57.010Z,5.20
2022-11-20T01:11:28.790Z,5.20
2022-11-20T01:13:57.952Z,5.30
2022-11-20T01:16:28.448Z,5.30
2022-11-20T01:18:58.608Z,5.30
2022-11-20T01:21:28.656Z,5.30
2022-11-20T01:23:56.833Z,5.30
2022-11-20T01:26:27.060Z,5.30
2022-11-20T01:28:57.217Z,5.40
2022-11-20T01:31:27.830Z,5.40
2022-11-20T01:33:57.842Z,5.40
2022-11-20T01:36:29.098Z,5.40
2022-11-20T01:38:59.317Z,5.40
2022-11-20T01:41:46.942Z,5.40
2022-11-20T01:44:19.709Z,5.40
2022-11-20T01:46:57.895Z,5.40
2022-11-20T01:49:35.458Z,5.40
2022-11-20T01:52:07.194Z,5.40
2022-11-20T01:54:40.740Z,5.40
2022-11-20T01:57:12.030Z,5.30
2022-11-20T01:59:45.565Z,5.40
2022-11-20T02:02:14.123Z,5.30
2022-11-20T02:04:42.658Z,5.30
2022-11-20T02:07:11.075Z,5.30
2022-11-20T02:09:39.267Z,5.30
2022-11-20T02:12:28.695Z,5.40
2022-11-20T02:14:58.456Z,5.30
2022-11-20T02:17:27.453Z,5.30
2022-11-20T02:19:56.460Z,5.30
2022-11-20T02:22:33.176Z,5.30
2022-11-20T02:25:04.436Z,5.20
2022-11-20T02:27:32.758Z,5.20
2022-11-20T02:30:04.004Z,5.20
2022-11-20T02:32:34.241Z,5.20
2022-11-20T02:35:09.576Z,5.20
2022-11-20T02:37:41.110Z,5.20
2022-11-20T02:40:12.064Z,5.30
2022-11-20T02:42:40.305Z,5.30
2022-11-20T02:45:09.727Z,5.30
2022-11-20T02:47:38.029Z,5.30
2022-11-20T02:50:07.605Z,5.30
2022-11-20T02:52:35.773Z,5.30
2022-11-20T02:55:04.000Z,5.30
2022-11-20T02:57:33.558Z,5.30
2022-11-20T03:00:01.772Z,5.30
2022-11-20T03:02:32.409Z,5.30
2022-11-20T03:05:00.830Z,5.30
2022-11-20T03:07:29.065Z,5.30
2022-11-20T03:09:57.269Z,5.30
2022-11-20T03:12:25.455Z,5.30
2022-11-20T03:14:54.997Z,5.30
2022-11-20T03:17:23.189Z,5.30
2022-11-20T03:19:51.367Z,5.30
2022-11-20T03:22:19.522Z,5.30
2022-11-20T03:24:47.712Z,5.20
2022-11-20T03:27:15.881Z,5.20
2022-11-20T03:29:44.096Z,5.20
2022-11-20T03:32:13.704Z,5.20
2022-11-20T03:34:42.110Z,5.20
2022-11-20T03:37:10.526Z,5.20
2022-11-20T03:39:38.689Z,5.20
2022-11-20T03:42:28.678Z,5.20
2022-11-20T03:44:56.889Z,5.30
2022-11-20T03:47:26.490Z,5.30
2022-11-20T03:49:54.654Z,5.30
2022-11-20T03:52:22.853Z,5.30
2022-11-20T03:54:51.024Z,5.30
2022-11-20T03:57:19.180Z,5.30
2022-11-20T03:59:47.337Z,5.30
2022-11-20T04:02:15.571Z,5.40
2022-11-20T04:04:45.176Z,5.30
2022-11-20T04:07:13.402Z,5.40
2022-11-20T04:09:41.595Z,5.40
2022-11-20T04:12:09.749Z,5.40
2022-11-20T04:14:37.929Z,5.40
2022-11-20T04:17:06.172Z,5.50
2022-11-20T04:19:34.333Z,5.50
2022-11-20T04:22:03.917Z,5.50
2022-11-20T04:24:32.100Z,5.50
2022-11-20T04:27:00.273Z,5.50
2022-11-20T04:29:29.143Z,5.50
2022-11-20T04:31:57.314Z,5.50
2022-11-20T04:34:25.484Z,5.50
2022-11-20T04:36:53.667Z,5.50
2022-11-20T04:39:23.577Z,5.50
2022-11-20T04:42:12.367Z,5.50
2022-11-20T04:44:40.585Z,5.60
2022-11-20T04:47:08.865Z,5.50
2022-11-20T04:49:37.152Z,5.60
2022-11-20T04:52:05.494Z,5.50
2022-11-20T04:54:35.035Z,5.50
2022-11-20T04:57:03.232Z,5.50
2022-11-20T04:59:31.438Z,5.50
2022-11-20T05:01:59.710Z,5.50
2022-11-20T05:04:27.886Z,5.60
2022-11-20T05:06:56.080Z,5.60
2022-11-20T05:09:24.383Z,5.60
2022-11-20T05:11:53.959Z,5.60
2022-11-20T05:14:22.148Z,5.60
2022-11-20T05:16:50.429Z,5.60
2022-11-20T05:19:18.736Z,5.60
2022-11-20T05:21:46.972Z,5.60
2022-11-20T05:24:15.148Z,5.60
2022-11-20T05:26:43.292Z,5.60
2022-11-20T05:29:14.372Z,5.60
2022-11-20T05:31:42.981Z,5.60
2022-11-20T05:34:11.174Z,5.70
2022-11-20T05:36:39.386Z,5.70
2022-11-20T05:39:07.717Z,5.70
2022-11-20T05:41:36.196Z,5.70
2022-11-20T05:44:04.378Z,5.70
2022-11-20T05:46:34.009Z,5.70
2022-11-20T05:49:02.178Z,5.60
2022-11-20T05:51:30.526Z,5.60
2022-11-20T05:53:59.704Z,5.60
2022-11-20T05:56:27.872Z,5.50
2022-11-20T05:58:56.042Z,5.60
2022-11-20T06:01:25.793Z,5.60
2022-11-20T06:03:56.368Z,5.60
2022-11-20T06:06:26.187Z,5.60
2022-11-20T06:08:54.430Z,5.60
2022-11-20T06:11:22.649Z,5.60
2022-11-20T06:13:51.071Z,5.60
2022-11-20T06:16:22.748Z,5.60
2022-11-20T06:18:51.222Z,5.60
2022-11-20T06:21:22.573Z,5.60
2022-11-20T06:23:51.871Z,5.70
2022-11-20T06:26:22.012Z,5.70
2022-11-20T06:28:50.578Z,5.70
2022-11-20T06:31:20.425Z,5.70
2022-11-20T06:33:49.504Z,5.70
2022-11-20T06:36:20.945Z,5.70
2022-11-20T06:38:49.403Z,5.70
2022-11-20T06:41:19.731Z,5.70
2022-11-20T06:43:48.144Z,5.70
2022-11-20T06:46:19.122Z,5.70
2022-11-20T06:48:48.009Z,5.70
2022-11-20T06:51:16.399Z,5.80
2022-11-20T06:53:46.071Z,5.80
2022-11-20T06:56:14.248Z,5.80
2022-11-20T06:58:42.410Z,5.80
2022-11-20T07:01:13.268Z,5.80
2022-11-20T07:03:42.265Z,5.80
2022-11-20T07:06:10.911Z,5.90
2022-11-20T07:08:39.108Z,5.80
2022-11-20T07:11:10.284Z,5.90
2022-11-20T07:13:38.598Z,5.90
2022-11-20T07:16:09.292Z,5.80
2022-11-20T07:18:38.127Z,5.90
2022-11-20T07:21:08.452Z,5.90
2022-11-20T07:23:36.903Z,5.90
2022-11-20T07:26:06.890Z,5.90
2022-11-20T07:28:36.870Z,5.90
2022-11-20T07:31:05.882Z,5.90
2022-11-20T07:33:34.374Z,6.00
2022-11-20T07:36:02.898Z,6.00
2022-11-20T07:38:32.217Z,6.00
2022-11-20T07:41:02.555Z,6.00
2022-11-20T07:43:31.033Z,6.00
2022-11-20T07:46:01.034Z,6.00
2022-11-20T07:48:29.481Z,6.00
2022-11-20T07:50:57.929Z,6.00
2022-11-20T07:53:26.180Z,6.00
2022-11-20T07:55:54.490Z,6.00
2022-11-20T07:58:22.959Z,6.00
2022-11-20T08:00:51.218Z,6.00
2022-11-20T08:03:24.964Z,6.00
2022-11-20T08:05:54.040Z,6.00
2022-11-20T08:08:22.523Z,5.90
2022-11-20T08:10:50.695Z,5.90
2022-11-20T08:13:44.605Z,5.90
2022-11-20T08:16:13.080Z,5.90
2022-11-20T08:18:42.619Z,5.90
2022-11-20T08:21:10.771Z,5.90
2022-11-20T08:23:38.941Z,5.90
2022-11-20T08:26:07.275Z,6.00
2022-11-20T08:28:35.433Z,6.00
2022-11-20T08:31:04.546Z,6.00
2022-11-20T08:33:33.790Z,6.00
2022-11-20T08:36:04.974Z,6.00
2022-11-20T08:38:33.648Z,6.00
2022-11-20T08:41:20.323Z,6.00
2022-11-20T08:43:48.498Z,6.10
2022-11-20T08:46:16.739Z,6.10
2022-11-20T08:48:45.586Z,6.10
2022-11-20T08:51:15.543Z,6.10
2022-11-20T08:53:43.803Z,6.10
2022-11-20T08:56:12.225Z,6.10
2022-11-20T08:59:09.977Z,6.10
2022-11-20T09:01:30.159Z,6.10
2022-11-20T09:03:58.866Z,6.10
2022-11-20T09:06:28.577Z,6.10
2022-11-20T09:08:59.720Z,6.20
2022-11-20T09:11:30.287Z,6.20
2022-11-20T09:13:58.506Z,6.20
2022-11-20T09:16:26.683Z,6.30
2022-11-20T09:19:20.229Z,6.30
2022-11-20T09:21:44.380Z,6.30
2022-11-20T09:24:12.693Z,6.40
2022-11-20T09:26:40.925Z,6.50
2022-11-20T09:29:09.228Z,6.50
2022-11-20T09:31:37.486Z,6.50
2022-11-20T09:34:05.757Z,6.60
2022-11-20T09:36:34.022Z,6.60
2022-11-20T09:39:03.848Z,6.70
2022-11-20T09:41:53.395Z,6.70
2022-11-20T09:44:36.773Z,6.80
2022-11-20T09:47:12.065Z,6.80
2022-11-20T09:50:00.476Z,6.80
2022-11-20T09:52:39.028Z,6.80
2022-11-20T09:55:12.680Z,6.90
2022-11-20T09:57:44.912Z,6.90
2022-11-20T10:00:16.493Z,6.90
2022-11-20T10:02:49.313Z,6.90
2022-11-20T10:05:21.600Z,7.00
2022-11-20T10:07:57.023Z,6.90
2022-11-20T10:10:39.686Z,6.90
2022-11-20T10:13:31.177Z,6.90
2022-11-20T10:16:10.745Z,6.90
2022-11-20T10:18:49.860Z,7.00
2022-11-20T10:21:29.808Z,7.00
2022-11-20T10:24:36.817Z,7.00
2022-11-20T10:27:23.578Z,7.00
2022-11-20T10:30:02.589Z,7.10
2022-11-20T10:32:37.316Z,7.00
2022-11-20T10:35:16.247Z,7.10
2022-11-20T10:37:48.577Z,7.10
2022-11-20T10:40:25.352Z,7.10
2022-11-20T10:42:58.751Z,7.10
2022-11-20T10:45:45.400Z,7.10
2022-11-20T10:48:18.635Z,7.10
2022-11-20T10:50:59.873Z,7.10
2022-11-20T10:53:46.244Z,7.10
2022-11-20T10:56:21.668Z,7.10
2022-11-20T10:59:04.661Z,7.10
2022-11-20T11:01:32.871Z,7.10
2022-11-20T11:04:01.460Z,7.20
2022-11-20T11:06:36.786Z,7.20
2022-11-20T11:09:12.948Z,7.30
2022-11-20T11:11:41.133Z,7.30
2022-11-20T11:14:12.585Z,7.40
2022-11-20T11:16:52.184Z,7.40
2022-11-20T11:19:20.641Z,7.50
2022-11-20T11:21:55.167Z,7.50
2022-11-20T11:24:42.877Z,7.60
2022-11-20T11:27:18.005Z,7.60
2022-11-20T11:29:48.338Z,7.70
2022-11-20T11:32:19.583Z,7.70
2022-11-20T11:35:00.243Z,7.80
2022-11-20T11:37:36.838Z,7.80
2022-11-20T11:43:01.038Z,7.80
2022-11-20T11:45:29.696Z,7.80
2022-11-20T11:48:00.536Z,7.80
2022-11-20T11:50:30.073Z,7.80
2022-11-20T11:53:11.777Z,7.80
2022-11-20T11:55:44.013Z,7.80
2022-11-20T11:58:31.206Z,7.80
2022-11-20T12:01:06.613Z,7.80
2022-11-20T12:03:39.533Z,7.80
2022-11-20T12:06:13.102Z,7.70
2022-11-20T12:08:49.012Z,7.80
2022-11-20T12:11:25.335Z,7.70
2022-11-20T12:13:59.204Z,7.70
2022-11-20T12:16:29.323Z,7.80
2022-11-20T12:18:58.281Z,7.80
2022-11-20T12:21:38.508Z,7.80
2022-11-20T12:24:26.309Z,7.80
2022-11-20T12:27:07.444Z,7.90
2022-11-20T12:29:52.409Z,7.90
2022-11-20T12:32:57.073Z,7.90
2022-11-20T12:35:55.176Z,8.00
2022-11-20T12:38:38.670Z,8.00
2022-11-20T12:41:14.666Z,8.00
2022-11-20T12:44:10.088Z,8.00
2022-11-20T12:46:48.440Z,8.00
2022-11-20T12:49:31.161Z,8.00
2022-11-20T12:52:26.971Z,7.90
2022-11-20T12:55:18.754Z,8.00
2022-11-20T12:57:54.825Z,8.00
2022-11-20T13:00:24.402Z,8.10
2022-11-20T13:03:21.098Z,8.00
2022-11-20T13:06:01.744Z,8.10
2022-11-20T13:08:34.260Z,8.10
2022-11-20T13:11:08.171Z,8.10
2022-11-20T13:13:44.606Z,8.10
2022-11-20T13:16:22.029Z,8.10
2022-11-20T13:18:50.277Z,8.10
2022-11-20T13:21:22.543Z,8.20
2022-11-20T13:23:50.829Z,8.20
2022-11-20T13:26:22.397Z,8.20
2022-11-20T13:29:02.131Z,8.20
2022-11-20T13:31:34.153Z,8.20
2022-11-20T13:34:03.607Z,8.20
2022-11-20T13:36:35.920Z,8.20
2022-11-20T13:39:04.229Z,8.20
2022-11-20T13:41:35.133Z,8.30
2022-11-20T13:44:16.696Z,8.30
2022-11-20T13:46:46.648Z,8.30
2022-11-20T13:49:22.241Z,8.30
2022-11-20T13:51:52.837Z,8.30
2022-11-20T13:54:44.807Z,8.30
2022-11-20T13:57:41.553Z,8.30
2022-11-20T14:00:16.436Z,8.20
2022-11-20T14:02:45.809Z,8.20
2022-11-20T14:05:22.159Z,8.20
2022-11-20T14:07:53.240Z,8.20
2022-11-20T14:10:31.652Z,8.20
2022-11-20T14:13:00.997Z,8.20
2022-11-20T14:15:31.671Z,8.10
2022-11-20T14:18:00.785Z,8.10
2022-11-20T14:20:32.446Z,8.10
2022-11-20T14:23:50.319Z,8.00
2022-11-20T14:26:22.096Z,8.00
2022-11-20T14:33:05.786Z,7.90
2022-11-20T14:35:37.444Z,7.80
2022-11-20T14:38:05.977Z,7.80
2022-11-20T14:40:36.507Z,7.80
2022-11-20T14:44:00.117Z,7.80
2022-11-20T14:46:30.419Z,7.70
2022-11-20T14:49:02.329Z,7.70
2022-11-20T14:51:32.455Z,7.70
2022-11-20T14:54:12.237Z,7.60
2022-11-20T14:56:40.903Z,7.60
2022-11-20T14:59:10.707Z,7.60
2022-11-20T15:01:40.278Z,7.60
2022-11-20T15:04:11.516Z,7.50
2022-11-20T15:06:40.268Z,7.60
2022-11-20T15:09:17.022Z,7.50
2022-11-20T15:11:56.796Z,7.60
2022-11-20T15:14:26.202Z,7.60
2022-11-20T15:16:56.592Z,7.60
2022-11-20T15:19:26.689Z,7.60
2022-11-20T15:21:55.201Z,7.50
2022-11-20T15:24:23.661Z,7.50
2022-11-20T15:26:51.968Z,7.50
2022-11-20T15:29:21.923Z,7.50
2022-11-20T15:31:51.974Z,7.50
2022-11-20T15:34:21.853Z,7.50
2022-11-20T15:36:50.354Z,7.50
2022-11-20T15:39:18.921Z,7.50
2022-11-20T15:41:47.113Z,7.50
2022-11-20T15:44:15.294Z,7.50
2022-11-20T15:46:46.139Z,7.50
2022-11-20T15:49:16.993Z,7.40
2022-11-20T15:51:49.285Z,7.50
2022-11-20T15:54:21.294Z,7.50
2022-11-20T15:56:50.340Z,7.40
2022-11-20T15:59:18.713Z,7.50
2022-11-20T16:01:46.929Z,7.50
2022-11-20T16:04:16.489Z,7.50
2022-11-20T16:06:46.053Z,7.40
2022-11-20T16:09:14.229Z,7.50
2022-11-20T16:11:42.461Z,7.50
2022-11-20T16:14:30.213Z,7.50
2022-11-20T16:16:58.394Z,7.50
2022-11-20T16:19:26.565Z,7.50
2022-11-20T16:22:02.313Z,7.50
2022-11-20T16:24:31.161Z,7.40
2022-11-20T16:26:59.420Z,7.40
2022-11-20T16:29:27.581Z,7.40
2022-11-20T16:31:55.753Z,7.40
2022-11-20T16:34:24.266Z,7.40
2022-11-20T16:36:52.517Z,7.40
2022-11-20T16:39:24.075Z,7.40
2022-11-20T16:41:52.465Z,7.40
2022-11-20T16:44:20.674Z,7.40
2022-11-20T16:46:48.879Z,7.40
2022-11-20T16:49:17.252Z,7.40
2022-11-20T16:51:45.679Z,7.40
2022-11-20T16:54:20.887Z,7.40
2022-11-20T16:56:52.067Z,7.40
2022-11-20T16:59:20.416Z,7.40
2022-11-20T17:01:48.680Z,7.40
2022-11-20T17:04:17.105Z,7.40
2022-11-20T17:06:46.084Z,7.40
2022-11-20T17:09:14.571Z,7.40
2022-11-20T17:11:42.853Z,7.40
2022-11-20T17:14:13.581Z,7.40
2022-11-20T17:16:43.063Z,7.40
2022-11-20T17:19:11.369Z,7.30
2022-11-20T17:21:40.109Z,7.30
2022-11-20T17:24:10.648Z,7.30
2022-11-20T17:26:39.979Z,7.40
2022-11-20T17:29:10.194Z,7.40
2022-11-20T17:31:40.796Z,7.40
2022-11-20T17:34:12.033Z,7.40
2022-11-20T17:36:45.242Z,7.50
2022-11-20T17:39:14.632Z,7.50
2022-11-20T17:41:43.407Z,7.50
2022-11-20T17:44:12.236Z,7.50
2022-11-20T17:46:42.320Z,7.50
2022-11-20T17:49:10.504Z,7.60
2022-11-20T17:51:38.705Z,7.60
2022-11-20T17:54:08.424Z,7.60
2022-11-20T17:56:54.710Z,7.70
2022-11-20T17:59:23.141Z,7.70
2022-11-20T18:01:54.583Z,7.80
2022-11-20T18:04:23.332Z,7.80
2022-11-20T18:06:51.848Z,7.80
2022-11-20T18:09:20.051Z,7.90
2022-11-20T18:11:48.257Z,7.90
2022-11-20T18:14:32.648Z,7.90
2022-11-20T18:17:03.929Z,7.90
2022-11-20T18:19:36.514Z,8.00
2022-11-20T18:22:08.978Z,8.00
2022-11-20T18:24:39.365Z,8.00
2022-11-20T18:27:09.402Z,8.00
2022-11-20T18:29:37.577Z,8.00
2022-11-20T18:32:07.312Z,8.00
2022-11-20T18:34:35.494Z,8.00
2022-11-20T18:37:05.564Z,7.90
2022-11-20T18:39:33.893Z,8.00
2022-11-20T18:42:19.201Z,8.00
2022-11-20T18:44:54.621Z,8.00
2022-11-20T18:47:25.995Z,8.00
2022-11-20T18:49:57.214Z,8.00
2022-11-20T18:52:27.720Z,8.00
2022-11-20T18:54:56.610Z,8.10
2022-11-20T18:57:27.586Z,8.10
2022-11-20T18:59:56.024Z,8.00
2022-11-20T19:02:25.632Z,8.10
2022-11-20T19:04:53.815Z,8.00
2022-11-20T19:07:22.510Z,8.10
2022-11-20T19:09:52.535Z,8.00
2022-11-20T19:12:21.436Z,8.00
2022-11-20T19:14:49.805Z,8.00
2022-11-20T19:17:18.276Z,8.00
2022-11-20T19:19:49.653Z,8.00
2022-11-20T19:22:17.892Z,8.00
2022-11-20T19:24:46.088Z,8.00
2022-11-20T19:27:14.629Z,8.00
2022-11-20T19:29:42.828Z,8.00
2022-11-20T19:32:11.327Z,8.00
2022-11-20T19:34:39.563Z,8.00
2022-11-20T19:37:09.900Z,8.00
2022-11-20T19:39:38.088Z,8.10
2022-11-20T19:42:06.813Z,8.10
2022-11-20T19:44:35.068Z,8.10
2022-11-20T19:47:08.919Z,8.10
2022-11-20T19:49:41.899Z,8.10
2022-11-20T19:52:11.646Z,8.10
2022-11-20T19:54:40.077Z,8.20
2022-11-20T19:57:08.267Z,8.20
2022-11-20T19:59:36.440Z,8.20
2022-11-20T20:02:04.787Z,8.20
2022-11-20T20:04:33.124Z,8.30
2022-11-20T20:07:03.954Z,8.20
2022-11-20T20:09:34.324Z,8.30
2022-11-20T20:12:02.502Z,8.30
2022-11-20T20:14:32.046Z,8.40
2022-11-20T20:17:00.231Z,8.40
2022-11-20T20:19:28.527Z,8.40
2022-11-20T20:21:56.753Z,8.50
2022-11-20T20:24:24.915Z,8.50
2022-11-20T20:26:58.113Z,8.60
2022-11-20T20:29:26.846Z,8.60
2022-11-20T20:31:55.117Z,8.60
2022-11-20T20:34:23.495Z,8.60
2022-11-20T20:36:51.787Z,8.70
2022-11-20T20:39:20.413Z,8.70
2022-11-20T20:41:50.237Z,8.80
2022-11-20T20:44:37.104Z,8.80
2022-11-20T20:47:05.324Z,8.80
2022-11-20T20:49:34.688Z,8.80
2022-11-20T20:52:02.946Z,8.90
2022-11-20T20:54:34.484Z,8.90
2022-11-20T20:57:02.984Z,8.90
2022-11-20T20:59:32.628Z,9.00
2022-11-20T21:02:00.934Z,9.00
2022-11-20T21:04:29.181Z,9.10
2022-11-20T21:06:57.389Z,9.10
2022-11-20T21:09:28.728Z,9.10
2022-11-20T21:11:56.905Z,9.20
2022-11-20T21:14:25.415Z,9.20
2022-11-20T21:16:55.267Z,9.20
2022-11-20T21:19:23.485Z,9.30
2022-11-20T21:21:59.413Z,9.30
2022-11-20T21:24:28.398Z,9.30
2022-11-20T21:26:57.207Z,9.40
2022-11-20T21:29:26.966Z,9.40
2022-11-20T21:31:57.493Z,9.50
2022-11-20T21:34:26.528Z,9.50
2022-11-20T21:36:54.869Z,9.50
2022-11-20T21:39:23.150Z,9.60
2022-11-20T21:41:51.385Z,9.60
2022-11-20T21:44:34.824Z,9.60
2022-11-20T21:47:04.417Z,9.70
2022-11-20T21:49:32.586Z,9.70
2022-11-20T21:52:00.796Z,9.70
2022-11-20T21:54:28.975Z,9.80
2022-11-20T21:56:57.258Z,9.80
2022-11-20T21:59:25.573Z,9.80
2022-11-20T22:01:53.878Z,9.80
2022-11-20T22:04:24.579Z,9.90
2022-11-20T22:06:53.008Z,9.90
2022-11-20T22:09:21.248Z,9.90
2022-11-20T22:11:49.415Z,9.90
2022-11-20T22:14:23.056Z,9.90
2022-11-20T22:16:52.826Z,10.00
2022-11-20T22:19:23.727Z,10.00
2022-11-20T22:21:52.282Z,10.00
2022-11-20T22:24:21.707Z,10.00
2022-11-20T22:26:50.476Z,10.10
2022-11-20T22:29:20.913Z,10.10
2022-11-20T22:31:49.413Z,10.10
2022-11-20T22:34:17.591Z,10.10
2022-11-20T22:36:47.166Z,10.10
2022-11-20T22:39:15.424Z,10.10
2022-11-20T22:41:43.577Z,10.10
2022-11-20T22:44:16.321Z,10.10
2022-11-20T22:46:44.502Z,10.10
2022-11-20T22:49:12.707Z,10.10
2022-11-20T22:51:42.789Z,10.10
2022-11-20T22:54:13.939Z,10.10
2022-11-20T22:56:42.554Z,10.10
2022-11-20T22:59:11.217Z,10.10
2022-11-20T23:01:39.750Z,10.10
2022-11-20T23:04:10.930Z,10.10
2022-11-20T23:06:39.466Z,10.10
2022-11-20T23:09:08.693Z,10.10
2022-11-20T23:11:38.284Z,10.10
2022-11-20T23:14:09.024Z,10.10
2022-11-20T23:16:37.238Z,10.10
2022-11-20T23:19:07.809Z,10.20
2022-11-20T23:21:39.503Z,10.10
2022-11-20T23:24:08.438Z,10.10
2022-11-20T23:26:39.716Z,10.10
2022-11-20T23:29:08.281Z,10.20
2022-11-20T23:31:37.192Z,10.10
2022-11-20T23:34:05.749Z,10.10
2022-11-20T23:36:34.321Z,10.10
2022-11-20T23:39:02.555Z,10.10
2022-11-20T23:41:30.734Z,10.10
2022-11-20T23:44:00.319Z,10.10
2022-11-20T23:46:28.478Z,10.00
2022-11-20T23:48:56.732Z,10.00
2022-11-20T23:51:24.950Z,10.00
2022-11-20T23:53:53.153Z,10.00
2022-11-20T23:56:21.312Z,10.00
2022-11-20T23:58:49.557Z,10.00
